Time;durP1;ratioP1;P1;durP2;ratioP2;P2;SDS_P1;SDS_P2;PMS_P1;PMS_P2;Temp;Humidity;BMP_temperature;BMP_pressure;BME280_temperature;BME280_humidity;BME280_pressure;Samples;Min_cycle;Max_cycle;Signal;HPM_P1;HPM_P2
2023/07/13 00:00:28;;;;;;;9.55;4.55;;;16.80;1.00;;;;;;5096958;28;20055;-66
2023/07/13 00:02:53;;;;;;;10.57;4.20;;;16.90;1.00;;;;;;5096783;28;20063;-66
2023/07/13 00:05:20;;;;;;;8.90;4.70;;;17.00;1.00;;;;;;5097018;28;20397;-66
2023/07/13 00:07:46;;;;;;;6.40;4.05;;;17.10;1.00;;;;;;5096894;28;20032;-66
2023/07/13 00:10:12;;;;;;;6.57;4.07;;;17.10;1.00;;;;;;5096709;28;20078;-66
2023/07/13 00:12:38;;;;;;;9.57;4.88;;;17.20;1.00;;;;;;5096830;28;20522;-66
2023/07/13 00:15:09;;;;;;;9.68;4.75;;;17.20;1.00;;;;;;5096810;28;20028;-66
2023/07/13 00:17:35;;;;;;;11.68;4.07;;;17.20;99.90;;;;;;5096406;28;20040;-66
2023/07/13 00:20:00;;;;;;;5.70;4.10;;;17.20;99.90;;;;;;5096357;28;20024;-66
2023/07/13 00:22:26;;;;;;;9.40;4.63;;;17.20;99.90;;;;;;5096683;28;20028;-66
2023/07/13 00:24:55;;;;;;;9.98;4.68;;;17.30;99.90;;;;;;5096576;28;20024;-66
2023/07/13 00:27:20;;;;;;;10.68;4.60;;;17.30;99.90;;;;;;5096489;28;20428;-66
2023/07/13 00:29:46;;;;;;;7.57;4.25;;;17.30;99.90;;;;;;5096525;28;20032;-66
2023/07/13 00:32:11;;;;;;;7.50;4.10;;;17.20;99.90;;;;;;5096383;28;20032;-66
2023/07/13 00:34:38;;;;;;;9.30;5.00;;;17.10;99.90;;;;;;5096445;28;20036;-66
2023/07/13 00:37:06;;;;;;;8.60;4.72;;;17.10;99.90;;;;;;5096075;28;20032;-66
2023/07/13 00:39:32;;;;;;;6.13;4.28;;;17.00;99.90;;;;;;5096008;28;20032;-67
2023/07/13 00:41:58;;;;;;;8.88;4.78;;;16.90;1.00;;;;;;5096357;28;20027;-66
2023/07/13 00:44:24;;;;;;;10.02;4.47;;;16.90;1.00;;;;;;5096097;28;20394;-66
2023/07/13 00:46:50;;;;;;;6.78;4.28;;;16.80;1.00;;;;;;5095974;28;20070;-66
2023/07/13 00:49:20;;;;;;;7.18;3.83;;;16.80;1.00;;;;;;5095668;28;20475;-66
2023/07/13 00:51:54;;;;;;;6.07;4.22;;;16.70;1.00;;;;;;5096100;28;20065;-66
2023/07/13 00:54:24;;;;;;;8.35;4.40;;;16.70;1.00;;;;;;5096049;28;20039;-66
2023/07/13 00:56:53;;;;;;;10.85;4.60;;;16.60;1.00;;;;;;5095907;28;20028;-66
2023/07/13 00:59:21;;;;;;;5.22;3.90;;;16.50;1.00;;;;;;5095921;28;20016;-66
2023/07/13 01:01:47;;;;;;;5.72;4.43;;;16.40;1.00;;;;;;5095821;28;20106;-66
2023/07/13 01:04:14;;;;;;;5.45;4.53;;;16.30;1.00;;;;;;5095852;28;20385;-66
2023/07/13 01:06:40;;;;;;;6.95;4.85;;;16.10;1.00;;;;;;5095443;28;20111;-66
2023/07/13 01:09:07;;;;;;;6.30;4.30;;;16.00;1.00;;;;;;5095739;28;20028;-66
2023/07/13 01:11:34;;;;;;;10.73;4.65;;;15.90;1.00;;;;;;5095799;28;20428;-66
2023/07/13 01:14:01;;;;;;;11.07;5.85;;;15.90;1.00;;;;;;5095844;28;20396;-65
2023/07/13 01:16:33;;;;;;;12.90;5.25;;;15.80;1.00;;;;;;5095304;28;20113;-66
2023/07/13 01:19:00;;;;;;;10.10;4.60;;;15.80;1.00;;;;;;5095368;28;20463;-66
2023/07/13 01:21:28;;;;;;;5.85;4.80;;;15.80;1.00;;;;;;5095471;28;20024;-66
2023/07/13 01:23:54;;;;;;;8.95;4.72;;;15.80;1.00;;;;;;5095462;28;20118;-66
2023/07/13 01:26:20;;;;;;;7.57;4.60;;;15.80;1.00;;;;;;5095254;28;20032;-66
2023/07/13 01:28:46;;;;;;;9.45;4.57;;;15.70;1.00;;;;;;5095407;28;20473;-66
2023/07/13 01:31:12;;;;;;;9.32;4.65;;;15.70;1.00;;;;;;5095145;28;20103;-66
2023/07/13 01:33:40;;;;;;;12.65;4.93;;;15.70;1.00;;;;;;5095059;28;20028;-66
2023/07/13 01:36:07;;;;;;;11.13;4.88;;;15.70;1.00;;;;;;5095169;28;20027;-66
2023/07/13 01:38:33;;;;;;;10.07;4.05;;;15.70;1.00;;;;;;5094898;28;20020;-67
2023/07/13 01:40:59;;;;;;;10.68;4.15;;;15.70;1.00;;;;;;5094823;28;20051;-66
2023/07/13 01:43:25;;;;;;;7.57;4.25;;;15.60;1.00;;;;;;5095025;28;20036;-66
2023/07/13 01:45:50;;;;;;;9.20;3.90;;;15.60;1.00;;;;;;5094796;28;20031;-65
2023/07/13 01:48:16;;;;;;;7.30;3.97;;;15.50;1.00;;;;;;5095038;28;20115;-66
2023/07/13 01:50:41;;;;;;;11.10;4.13;;;15.40;1.00;;;;;;5094918;28;20028;-66
2023/07/13 01:53:07;;;;;;;12.23;4.60;;;15.40;1.00;;;;;;5094938;28;20065;-66
2023/07/13 01:55:34;;;;;;;11.20;4.35;;;15.30;1.00;;;;;;5094972;28;20031;-66
2023/07/13 01:57:59;;;;;;;13.77;4.63;;;15.40;1.00;;;;;;5094545;28;20378;-65
2023/07/13 02:00:25;;;;;;;10.50;4.28;;;15.50;1.00;;;;;;5093943;28;20024;-66
2023/07/13 02:02:51;;;;;;;9.70;4.28;;;15.60;1.00;;;;;;5094617;28;20470;-66
2023/07/13 02:05:17;;;;;;;10.55;4.07;;;15.50;99.90;;;;;;5094639;28;20454;-66
2023/07/13 02:07:42;;;;;;;11.57;4.07;;;15.50;99.90;;;;;;5094560;28;20036;-66
2023/07/13 02:10:09;;;;;;;10.50;3.80;;;15.50;99.90;;;;;;5094148;28;20115;-66
2023/07/13 02:12:35;;;;;;;9.45;3.95;;;15.60;99.90;;;;;;5094421;28;20037;-66
2023/07/13 02:15:02;;;;;;;11.32;4.03;;;15.60;99.90;;;;;;5094051;28;20028;-66
2023/07/13 02:17:28;;;;;;;11.02;4.30;;;15.70;99.90;;;;;;5094051;28;20158;-65
2023/07/13 02:19:54;;;;;;;9.80;3.83;;;15.70;99.90;;;;;;5094145;28;20059;-65
2023/07/13 02:22:20;;;;;;;8.93;4.03;;;15.70;99.90;;;;;;5094390;28;20474;-66
2023/07/13 02:24:45;;;;;;;12.85;3.50;;;15.70;99.90;;;;;;5094033;28;20081;-65
2023/07/13 02:27:11;;;;;;;7.47;3.45;;;15.60;99.90;;;;;;5094136;28;20512;-65
2023/07/13 02:29:36;;;;;;;10.48;3.25;;;15.60;95.40;;;;;;5094200;28;20113;-65
2023/07/13 02:32:02;;;;;;;9.10;3.42;;;15.60;1.00;;;;;;5094146;28;20037;-65
2023/07/13 02:34:28;;;;;;;7.18;3.00;;;15.70;1.00;;;;;;5094193;28;20036;-65
2023/07/13 02:36:54;;;;;;;9.27;3.05;;;15.70;99.90;;;;;;5093943;28;20032;-65
2023/07/13 02:39:19;;;;;;;7.30;3.05;;;15.70;99.90;;;;;;5093663;28;20028;-65
2023/07/13 02:41:45;;;;;;;10.90;2.90;;;15.70;99.90;;;;;;5093909;28;20089;-66
2023/07/13 02:44:13;;;;;;;7.57;3.08;;;15.60;99.90;;;;;;5094053;28;20470;-65
2023/07/13 02:46:39;;;;;;;5.53;3.00;;;15.60;99.90;;;;;;5093939;28;20032;-65
2023/07/13 02:49:05;;;;;;;12.95;3.13;;;15.50;99.90;;;;;;5093655;28;20077;-65
2023/07/13 02:51:33;;;;;;;6.85;3.05;;;15.50;99.90;;;;;;5093608;28;20024;-65
2023/07/13 02:53:58;;;;;;;9.02;3.28;;;15.50;99.90;;;;;;5093916;28;20478;-65
2023/07/13 02:56:28;;;;;;;5.88;3.15;;;15.40;1.00;;;;;;5093666;28;20030;-65
2023/07/13 02:58:54;;;;;;;7.22;2.70;;;15.40;1.00;;;;;;5093924;28;20016;-65
2023/07/13 03:01:21;;;;;;;7.60;2.92;;;15.40;1.00;;;;;;5093758;28;20092;-66
2023/07/13 03:03:47;;;;;;;6.20;3.13;;;15.30;1.00;;;;;;5093243;28;20052;-66
2023/07/13 03:06:14;;;;;;;13.57;3.50;;;15.20;1.00;;;;;;5093498;28;20028;-66
2023/07/13 03:08:40;;;;;;;8.45;3.25;;;15.20;99.90;;;;;;5093331;28;20106;-66
2023/07/13 03:11:10;;;;;;;10.32;3.13;;;15.10;99.90;;;;;;5093756;28;20032;-67
2023/07/13 03:13:37;;;;;;;10.90;3.20;;;15.10;99.90;;;;;;5093292;28;20508;-66
2023/07/13 03:16:03;;;;;;;13.23;3.10;;;15.10;99.90;;;;;;5093417;28;20040;-66
2023/07/13 03:18:29;;;;;;;9.82;3.40;;;15.10;99.90;;;;;;5093623;28;20492;-65
2023/07/13 03:20:55;;;;;;;8.50;3.00;;;15.10;99.90;;;;;;5093535;28;20012;-65
2023/07/13 03:23:22;;;;;;;7.35;2.55;;;15.20;1.00;;;;;;5093606;28;20020;-65
2023/07/13 03:25:48;;;;;;;9.27;3.22;;;15.20;1.00;;;;;;5093091;28;20478;-65
2023/07/13 03:28:14;;;;;;;8.65;3.03;;;15.20;1.00;;;;;;5092322;28;20123;-65
2023/07/13 03:30:40;;;;;;;12.15;3.15;;;15.20;99.90;;;;;;5093273;28;20431;-65
2023/07/13 03:33:06;;;;;;;9.00;2.85;;;15.30;99.90;;;;;;5093492;28;20020;-65
2023/07/13 03:35:33;;;;;;;7.43;2.60;;;15.30;99.90;;;;;;5093490;28;20063;-66
2023/07/13 03:37:59;;;;;;;11.07;2.88;;;15.30;99.90;;;;;;5093029;28;20024;-65
2023/07/13 03:40:26;;;;;;;11.38;3.50;;;15.30;99.90;;;;;;5093276;28;20035;-65
2023/07/13 03:42:52;;;;;;;8.43;3.00;;;15.20;99.90;;;;;;5093098;28;20393;-65
2023/07/13 03:45:18;;;;;;;8.43;3.20;;;15.20;1.00;;;;;;5093274;28;20146;-66
2023/07/13 03:47:43;;;;;;;8.73;3.10;;;15.10;1.00;;;;;;5093246;28;20032;-66
2023/07/13 03:50:09;;;;;;;10.48;3.70;;;15.10;14.60;;;;;;5093310;28;20031;-66
2023/07/13 03:52:35;;;;;;;12.15;3.92;;;15.00;78.20;;;;;;5093036;28;20032;-65
2023/07/13 03:55:00;;;;;;;12.93;5.47;;;15.00;81.70;;;;;;5093314;28;20063;-65
2023/07/13 03:57:26;;;;;;;7.03;2.70;;;15.10;1.00;;;;;;5092847;28;20111;-65
2023/07/13 03:59:52;;;;;;;9.60;3.17;;;15.10;1.00;;;;;;5093132;28;20115;-65
2023/07/13 04:02:17;;;;;;;8.60;2.70;;;15.20;1.00;;;;;;5093084;28;20032;-65
2023/07/13 04:04:43;;;;;;;9.77;2.95;;;15.20;1.00;;;;;;5093037;28;20382;-65
2023/07/13 04:07:09;;;;;;;10.90;3.33;;;15.30;1.00;;;;;;5093178;28;20028;-65
2023/07/13 04:09:35;;;;;;;5.00;2.50;;;15.30;1.00;;;;;;5093093;28;20032;-65
2023/07/13 04:12:00;;;;;;;7.07;2.53;;;15.20;1.00;;;;;;5092944;28;20032;-66
2023/07/13 04:14:26;;;;;;;8.43;2.90;;;15.30;1.00;;;;;;5092777;28;20077;-66
2023/07/13 04:16:52;;;;;;;8.55;2.70;;;15.30;1.00;;;;;;5092502;28;20052;-66
2023/07/13 04:19:17;;;;;;;10.75;3.10;;;15.30;1.00;;;;;;5092944;28;20028;-65
2023/07/13 04:21:43;;;;;;;9.10;2.88;;;15.30;1.00;;;;;;5092881;28;20028;-66
2023/07/13 04:24:09;;;;;;;8.32;2.70;;;15.40;1.00;;;;;;5094019;28;20028;-65
2023/07/13 04:26:36;;;;;;;6.70;2.45;;;15.40;1.00;;;;;;5096462;28;20031;-65
2023/07/13 04:29:03;;;;;;;9.73;2.88;;;15.50;99.90;;;;;;5096651;28;20110;-66
2023/07/13 04:31:29;;;;;;;9.90;2.90;;;15.50;99.90;;;;;;5096492;28;20512;-66
2023/07/13 04:33:55;;;;;;;10.80;2.83;;;15.60;99.90;;;;;;5096069;28;20055;-65
2023/07/13 04:36:20;;;;;;;10.10;3.22;;;15.70;26.00;;;;;;5096335;28;20024;-66
2023/07/13 04:38:46;;;;;;;7.47;2.42;;;15.80;1.00;;;;;;5096243;28;20508;-65
2023/07/13 04:41:14;;;;;;;9.57;2.65;;;15.80;1.00;;;;;;5096362;28;20525;-65
2023/07/13 04:43:40;;;;;;;6.90;2.60;;;15.90;99.90;;;;;;5096359;28;20036;-66
2023/07/13 04:46:08;;;;;;;8.10;2.50;;;16.60;99.90;;;;;;5096255;28;20031;-67
2023/07/13 04:48:34;;;;;;;8.45;2.33;;;17.00;99.90;;;;;;5096190;28;20132;-65
2023/07/13 04:50:59;;;;;;;5.75;2.50;;;17.40;1.00;;;;;;5096091;28;20024;-66
2023/07/13 04:53:26;;;;;;;7.10;2.45;;;17.60;99.90;;;;;;5096072;28;20097;-66
2023/07/13 04:55:52;;;;;;;10.38;2.70;;;17.60;99.90;;;;;;5095624;28;20012;-65
2023/07/13 04:58:17;;;;;;;7.93;2.58;;;17.80;99.90;;;;;;5095737;28;20028;-66
2023/07/13 05:00:43;;;;;;;7.43;2.10;;;18.10;1.00;;;;;;5096025;28;20028;-66
2023/07/13 05:03:09;;;;;;;6.18;2.42;;;18.40;99.90;;;;;;5096177;28;20388;-65
2023/07/13 05:05:34;;;;;;;7.80;2.55;;;18.40;99.90;;;;;;5095897;28;20078;-65
2023/07/13 05:08:00;;;;;;;9.90;2.80;;;18.50;99.90;;;;;;5095786;28;20542;-65
2023/07/13 05:10:26;;;;;;;6.60;2.30;;;18.10;99.90;;;;;;5095755;28;20413;-65
2023/07/13 05:12:51;;;;;;;10.02;2.88;;;17.90;13.30;;;;;;5095690;28;20042;-65
2023/07/13 05:15:20;;;;;;;10.70;2.92;;;18.20;1.00;;;;;;5095750;28;20415;-66
2023/07/13 05:17:47;;;;;;;7.15;2.10;;;17.90;99.90;;;;;;5095085;28;20091;-65
2023/07/13 05:20:12;;;;;;;16.30;3.17;;;17.60;99.90;;;;;;5095560;28;20092;-65
2023/07/13 05:22:38;;;;;;;11.32;3.00;;;17.30;99.90;;;;;;5095554;28;20024;-65
2023/07/13 05:25:06;;;;;;;13.52;3.03;;;17.30;1.00;;;;;;5095210;28;20024;-65
2023/07/13 05:27:32;;;;;;;7.20;2.50;;;17.50;99.90;;;;;;5095194;28;20039;-65
2023/07/13 05:29:57;;;;;;;6.20;2.35;;;17.80;18.90;;;;;;5095332;28;20036;-65
2023/07/13 05:32:23;;;;;;;9.20;2.63;;;18.30;99.90;;;;;;5095292;28;20028;-65
2023/07/13 05:34:48;;;;;;;9.23;2.70;;;19.10;1.00;;;;;;5089457;28;20048;-66
2023/07/13 05:37:14;;;;;;;8.45;2.00;;;18.80;99.90;;;;;;5093012;28;20028;-65
2023/07/13 05:39:40;;;;;;;8.32;3.03;;;18.60;1.00;;;;;;5093071;28;20043;-66
2023/07/13 05:42:06;;;;;;;6.50;2.33;;;18.60;1.00;;;;;;5093043;28;20465;-67
2023/07/13 05:44:31;;;;;;;8.82;2.72;;;19.00;1.00;;;;;;5093358;28;20065;-66
2023/07/13 05:46:57;;;;;;;6.60;2.42;;;18.70;1.00;;;;;;5092981;28;20035;-65
2023/07/13 05:49:23;;;;;;;10.57;3.10;;;18.50;1.00;;;;;;5089195;28;20028;-65
2023/07/13 05:51:48;;;;;;;9.65;3.03;;;18.90;1.00;;;;;;5087108;28;20036;-65
2023/07/13 05:54:14;;;;;;;11.25;3.03;;;18.90;1.00;;;;;;5089363;28;20093;-64
2023/07/13 05:56:39;;;;;;;15.95;3.10;;;19.30;99.90;;;;;;5076539;28;20501;-65
2023/07/13 05:59:05;;;;;;;11.82;2.78;;;19.50;99.90;;;;;;5085720;28;20028;-64
2023/07/13 06:01:31;;;;;;;12.30;2.70;;;19.80;99.90;;;;;;5086307;28;20059;-65
2023/07/13 06:03:57;;;;;;;5.75;2.40;;;20.10;99.90;;;;;;5086095;28;20107;-65
2023/07/13 06:06:23;;;;;;;7.72;2.70;;;19.90;99.90;;;;;;5092315;28;20120;-65
2023/07/13 06:08:48;;;;;;;9.07;3.30;;;19.80;99.90;;;;;;5093276;28;20035;-67
2023/07/13 06:11:18;;;;;;;7.75;2.70;;;20.30;99.90;;;;;;5092997;28;20107;-67
2023/07/13 06:13:44;;;;;;;11.80;3.13;;;20.60;99.90;;;;;;5088887;28;20028;-67
2023/07/13 06:16:10;;;;;;;7.38;2.92;;;21.30;11.30;;;;;;5091989;28;20112;-66
2023/07/13 06:18:37;;;;;;;5.75;2.58;;;21.30;1.00;;;;;;5092513;28;20016;-67
2023/07/13 06:21:08;;;;;;;10.68;3.10;;;20.80;1.00;;;;;;5077244;28;20212;-66
2023/07/13 06:23:33;;;;;;;13.18;3.45;;;20.30;1.00;;;;;;5092805;28;20046;-67
2023/07/13 06:25:59;;;;;;;10.23;3.67;;;20.60;32.60;;;;;;5082097;28;20025;-67
2023/07/13 06:28:24;;;;;;;10.02;3.20;;;20.80;8.00;;;;;;5080305;28;20043;-66
2023/07/13 06:30:50;;;;;;;14.43;3.70;;;20.60;58.90;;;;;;5077982;28;20036;-66
2023/07/13 06:33:16;;;;;;;9.75;3.50;;;20.50;91.40;;;;;;5085387;28;20036;-65
2023/07/13 06:35:42;;;;;;;11.80;3.80;;;21.10;32.00;;;;;;5093952;28;20096;-66
2023/07/13 06:38:07;;;;;;;10.32;3.78;;;20.70;1.00;;;;;;5092045;28;20077;-67
2023/07/13 06:40:33;;;;;;;15.88;4.20;;;20.90;71.90;;;;;;5089897;28;20024;-65
2023/07/13 06:42:58;;;;;;;12.68;4.00;;;20.80;1.00;;;;;;5086868;28;20065;-66
2023/07/13 06:45:24;;;;;;;10.48;4.13;;;20.20;44.60;;;;;;5093335;28;20032;-66
2023/07/13 06:47:49;;;;;;;13.23;4.22;;;20.00;85.50;;;;;;5090905;28;20081;-66
2023/07/13 06:50:15;;;;;;;14.43;3.92;;;20.30;99.90;;;;;;5088093;28;20060;-66
2023/07/13 06:52:40;;;;;;;8.73;3.60;;;20.20;99.90;;;;;;5092051;28;20422;-66
2023/07/13 06:55:07;;;;;;;17.52;3.95;;;20.10;99.90;;;;;;5091789;28;20028;-67
2023/07/13 06:57:32;;;;;;;14.77;3.63;;;20.10;99.90;;;;;;5093509;28;20473;-67
2023/07/13 06:59:58;;;;;;;13.13;3.60;;;20.20;1.00;;;;;;5093337;28;20035;-66
2023/07/13 07:02:23;;;;;;;11.15;3.83;;;20.40;99.90;;;;;;5087375;28;20024;-67
2023/07/13 07:04:49;;;;;;;10.40;3.63;;;20.50;99.90;;;;;;5093642;28;20020;-67
2023/07/13 07:07:15;;;;;;;9.60;3.42;;;20.30;1.00;;;;;;5078545;28;20139;-66
2023/07/13 07:09:40;;;;;;;11.90;4.18;;;20.00;99.90;;;;;;5086518;28;20111;-65
2023/07/13 07:12:07;;;;;;;10.52;3.78;;;19.20;99.90;;;;;;5079132;28;20036;-65
2023/07/13 07:14:34;;;;;;;14.88;4.28;;;18.80;99.90;;;;;;5089380;28;20042;-68
2023/07/13 07:16:59;;;;;;;14.02;3.50;;;19.00;1.00;;;;;;5091483;28;20047;-65
2023/07/13 07:19:25;;;;;;;11.48;3.72;;;19.40;99.90;;;;;;5092072;28;20028;-69
2023/07/13 07:21:50;;;;;;;9.25;3.80;;;19.80;1.00;;;;;;5087533;28;20024;-67
2023/07/13 07:24:16;;;;;;;10.77;3.75;;;20.60;1.00;;;;;;5080426;28;20500;-67
2023/07/13 07:26:42;;;;;;;10.98;3.92;;;20.60;1.00;;;;;;5078746;28;20028;-68
2023/07/13 07:29:07;;;;;;;9.50;3.10;;;21.10;99.90;;;;;;5098239;28;20040;-69
2023/07/13 07:31:33;;;;;;;14.75;3.80;;;21.60;99.90;;;;;;5091291;28;20031;-66
2023/07/13 07:33:58;;;;;;;13.60;3.78;;;21.40;99.90;;;;;;5089657;28;20044;-67
2023/07/13 07:36:24;;;;;;;15.43;3.83;;;21.60;1.00;;;;;;5088535;28;20032;-66
2023/07/13 07:38:49;;;;;;;14.20;3.85;;;22.20;99.90;;;;;;5086618;28;20493;-67
2023/07/13 07:41:15;;;;;;;10.18;3.63;;;22.50;1.00;;;;;;5087735;28;20074;-68
2023/07/13 07:43:40;;;;;;;9.73;2.95;;;22.80;99.90;;;;;;5090260;28;20148;-67
2023/07/13 07:46:06;;;;;;;12.63;3.90;;;22.30;99.90;;;;;;5094513;28;20039;-67
2023/07/13 07:48:32;;;;;;;13.40;3.47;;;21.80;99.90;;;;;;5090855;28;20102;-68
2023/07/13 07:50:57;;;;;;;10.75;3.50;;;21.70;99.90;;;;;;5084147;28;20067;-68
2023/07/13 07:53:23;;;;;;;13.02;3.72;;;21.90;99.90;;;;;;5076761;28;20037;-68
2023/07/13 07:55:49;;;;;;;13.75;4.43;;;21.30;1.00;;;;;;5090218;28;20039;-66
2023/07/13 07:58:16;;;;;;;13.07;3.85;;;20.80;99.90;;;;;;5084880;28;20027;-68
2023/07/13 08:00:41;;;;;;;10.57;3.10;;;20.80;99.90;;;;;;5091092;28;20027;-67
2023/07/13 08:03:10;;;;;;;11.25;3.42;;;20.80;99.90;;;;;;5088199;28;20020;-69
2023/07/13 08:05:36;;;;;;;22.77;3.53;;;20.90;99.90;;;;;;5070013;28;20474;-68
2023/07/13 08:08:02;;;;;;;9.68;3.80;;;21.10;27.50;;;;;;5072401;28;20160;-70
2023/07/13 08:10:28;;;;;;;12.82;3.60;;;21.50;99.90;;;;;;5064508;28;20433;-69
2023/07/13 08:12:53;;;;;;;10.90;3.03;;;22.40;99.90;;;;;;5083992;28;20036;-69
2023/07/13 08:15:20;;;;;;;12.30;3.63;;;22.30;99.90;;;;;;5078718;28;20029;-69
2023/07/13 08:17:47;;;;;;;7.03;3.58;;;21.90;99.90;;;;;;5077069;28;20045;-69
2023/07/13 08:20:13;;;;;;;11.07;3.60;;;22.50;99.90;;;;;;5074209;28;20024;-69
2023/07/13 08:22:39;;;;;;;10.27;3.45;;;23.10;99.90;;;;;;5075916;28;20031;-67
2023/07/13 08:25:04;;;;;;;11.10;3.88;;;22.80;99.90;;;;;;5065132;28;20028;-68
2023/07/13 08:27:30;;;;;;;10.43;3.80;;;22.10;99.90;;;;;;5065721;28;20035;-68
2023/07/13 08:29:56;;;;;;;11.73;3.13;;;22.30;99.90;;;;;;5068649;28;20028;-68
2023/07/13 08:32:23;;;;;;;10.40;3.70;;;21.60;99.90;;;;;;5068753;28;20036;-68
2023/07/13 08:34:49;;;;;;;9.02;3.90;;;21.40;99.90;;;;;;5069254;28;20033;-67
2023/07/13 08:37:15;;;;;;;9.30;3.72;;;20.80;99.90;;;;;;5075050;28;20398;-68
2023/07/13 08:39:41;;;;;;;8.48;4.20;;;20.90;1.00;;;;;;5063317;28;20083;-68
2023/07/13 08:42:31;;;;;;;11.82;4.47;;;21.50;1.00;;;;;;5077543;28;20445;-69
2023/07/13 08:45:20;;;;;;;9.25;3.50;;;21.60;99.90;;;;;;5069663;28;20075;-68
2023/07/13 08:47:58;;;;;;;10.75;3.90;;;21.60;99.90;;;;;;5086655;28;20066;-70
2023/07/13 08:50:30;;;;;;;8.27;3.65;;;22.10;99.90;;;;;;5074546;28;20039;-68
2023/07/13 08:52:58;;;;;;;9.13;3.80;;;22.60;99.90;;;;;;5075673;28;20059;-68
2023/07/13 08:55:31;;;;;;;8.57;3.70;;;22.30;99.90;;;;;;5071142;28;20021;-68
2023/07/13 08:58:06;;;;;;;9.52;3.40;;;22.00;99.90;;;;;;5076624;28;20055;-69
2023/07/13 09:00:58;;;;;;;10.68;3.78;;;22.90;99.90;;;;;;5069007;28;20028;-69
2023/07/13 09:03:31;;;;;;;11.38;2.95;;;23.20;99.90;;;;;;5088895;28;20028;-69
2023/07/13 09:05:59;;;;;;;7.82;2.88;;;23.70;99.90;;;;;;5079965;28;20465;-69
2023/07/13 09:08:46;;;;;;;5.82;2.67;;;24.00;99.90;;;;;;5075180;28;20494;-69
2023/07/13 09:11:28;;;;;;;12.50;3.25;;;23.50;99.90;;;;;;5072242;28;20025;-69
2023/07/13 09:16:34;;;;;;;12.27;3.47;;;22.80;99.90;;;;;;5097792;27;20464;-69
2023/07/13 09:19:05;;;;;;;6.20;2.65;;;24.40;99.90;;;;;;5126977;28;20031;-69
2023/07/13 09:21:37;;;;;;;7.07;2.78;;;24.70;39.50;;;;;;5096549;28;20596;-69
2023/07/13 09:24:27;;;;;;;9.52;2.80;;;24.00;99.90;;;;;;5123060;27;20541;-68
2023/07/13 09:26:55;;;;;;;7.13;2.53;;;23.50;99.90;;;;;;5103911;28;20020;-69
2023/07/13 09:29:28;;;;;;;12.23;3.60;;;24.10;99.90;;;;;;5101000;28;21825;-69
2023/07/13 09:31:58;;;;;;;6.68;2.95;;;24.90;99.90;;;;;;5104796;28;20065;-68
2023/07/13 09:34:24;;;;;;;8.38;2.60;;;25.00;99.90;;;;;;5103006;28;20031;-69
2023/07/13 09:36:49;;;;;;;7.00;2.28;;;25.10;1.00;;;;;;5099699;28;20027;-69
2023/07/13 09:39:37;;;;;;;6.85;2.42;;;25.70;99.90;;;;;;5108198;28;20020;-68
2023/07/13 09:47:30;;;;;;;12.20;2.75;;;25.70;99.90;;;;;;5067276;28;20829;-68
2023/07/13 09:50:01;;;;;;;9.20;2.40;;;25.40;99.90;;;;;;5063661;28;20060;-69
2023/07/13 09:52:39;;;;;;;8.52;2.85;;;25.00;99.90;;;;;;5067512;28;20029;-69
2023/07/13 09:55:26;;;;;;;14.77;2.53;;;25.00;1.00;;;;;;5061680;28;20047;-70
2023/07/13 09:57:52;;;;;;;8.13;2.63;;;24.50;55.40;;;;;;5068460;28;20390;-68
2023/07/13 10:00:27;;;;;;;7.95;2.90;;;24.40;71.70;;;;;;5048141;28;20025;-69
2023/07/13 10:03:16;;;;;;;8.43;2.67;;;25.40;23.30;;;;;;5048909;28;20499;-69
2023/07/13 10:05:44;;;;;;;6.15;2.42;;;25.50;1.80;;;;;;5052358;28;20029;-68
2023/07/13 10:08:24;;;;;;;8.88;3.05;;;25.10;5.80;;;;;;5050202;28;20025;-69
2023/07/13 10:10:58;;;;;;;8.40;3.28;;;24.10;11.80;;;;;;5048164;28;20060;-69
2023/07/13 10:13:31;;;;;;;7.85;2.47;;;23.60;1.00;;;;;;5055918;28;20037;-69
2023/07/13 10:15:57;;;;;;;;;;;24.20;57.00;;;;;;5044826;28;20030;-69
2023/07/13 10:18:25;;;;;;;7.25;2.58;;;24.90;99.90;;;;;;5050671;28;19948;-72
2023/07/13 10:20:58;;;;;;;10.23;2.70;;;25.00;41.50;;;;;;5048603;28;20554;-69
2023/07/13 10:23:30;;;;;;;12.18;2.80;;;25.20;15.60;;;;;;5051414;28;20032;-69
2023/07/13 10:25:58;;;;;;;9.40;2.70;;;24.40;18.90;;;;;;5048015;28;20437;-69
2023/07/13 10:28:32;;;;;;;6.20;2.53;;;25.00;35.70;;;;;;5049087;28;20506;-68
2023/07/13 10:31:01;;;;;;;6.43;2.80;;;25.30;99.90;;;;;;5046902;28;20450;-69
2023/07/13 10:33:27;;;;;;;7.45;2.38;;;24.10;37.70;;;;;;5053941;28;20025;-69
2023/07/13 10:36:17;;;;;;;9.60;2.80;;;24.10;99.90;;;;;;5051793;28;20029;-67
2023/07/13 10:38:45;;;;;;;6.40;2.50;;;24.70;99.90;;;;;;5061373;28;20116;-68
2023/07/13 10:41:17;;;;;;;9.70;2.65;;;25.30;1.00;;;;;;5053364;28;20116;-67
2023/07/13 10:43:47;;;;;;;8.95;2.53;;;25.50;1.00;;;;;;5046457;28;20474;-67
2023/07/13 10:46:17;;;;;;;10.90;2.78;;;26.00;1.00;;;;;;5053371;28;20044;-67
2023/07/13 10:48:46;;;;;;;8.65;2.60;;;26.50;1.00;;;;;;5043063;28;20029;-67
2023/07/13 10:51:14;;;;;;;8.75;2.47;;;25.80;1.00;;;;;;5063481;28;20028;-67
2023/07/13 10:53:40;;;;;;;15.65;3.38;;;24.80;1.00;;;;;;5066545;28;20566;-68
2023/07/13 10:56:23;;;;;;;7.05;2.78;;;24.50;1.00;;;;;;5053016;28;20127;-67
2023/07/13 10:59:07;;;;;;;7.20;2.35;;;24.00;99.90;;;;;;5040296;28;20033;-68
2023/07/13 11:02:00;;;;;;;6.75;2.97;;;24.30;99.90;;;;;;5036778;28;20044;-68
2023/07/13 11:04:27;;;;;;;;;;;24.20;96.70;;;;;;5049398;28;20423;-67
2023/07/13 11:06:59;;;;;;;7.20;3.50;;;23.90;99.90;;;;;;5041933;28;20000;-68
2023/07/13 11:09:36;;;;;;;8.45;3.63;;;23.40;99.90;;;;;;5032786;28;20041;-68
2023/07/13 11:12:09;;;;;;;9.05;3.92;;;23.00;99.90;;;;;;5034137;28;20032;-67
2023/07/13 11:14:41;;;;;;;9.23;3.75;;;22.70;90.50;;;;;;5033678;28;20022;-67
2023/07/13 11:23:06;;;;;;;6.75;3.63;;;23.50;1.00;;;;;;5126544;27;20377;-69
2023/07/13 11:25:37;;;;;;;9.68;4.07;;;24.50;99.90;;;;;;5119827;27;20023;-68
2023/07/13 11:28:23;;;;;;;11.90;3.88;;;24.10;99.90;;;;;;5122940;27;20106;-71
2023/07/13 11:36:16;;;;;;;9.65;3.70;;;23.80;99.90;;;;;;5042508;28;20404;-69
2023/07/13 11:38:45;;;;;;;8.40;3.70;;;23.50;99.90;;;;;;5019765;28;20057;-69
2023/07/13 11:41:26;;;;;;;7.85;3.80;;;23.40;96.20;;;;;;5022541;28;20048;-69
2023/07/13 11:44:04;;;;;;;9.18;3.17;;;23.10;81.20;;;;;;5027224;28;20026;-69
2023/07/13 11:46:30;;;;;;;7.88;3.47;;;23.70;40.50;;;;;;5041028;28;20029;-68
2023/07/13 11:48:55;;;;;;;7.97;3.80;;;24.10;99.90;;;;;;5038997;28;20035;-69
2023/07/13 11:51:31;;;;;;;6.55;3.30;;;24.40;75.80;;;;;;5043215;28;20394;-68
2023/07/13 11:53:59;;;;;;;14.50;5.32;;;24.30;99.90;;;;;;5024358;28;20022;-69
2023/07/13 11:56:25;;;;;;;6.00;3.28;;;24.00;1.00;;;;;;5036308;28;20033;-68
2023/07/13 11:58:54;;;;;;;7.95;2.92;;;23.80;1.00;;;;;;5038261;28;20057;-69
2023/07/13 12:01:24;;;;;;;16.60;3.63;;;23.70;1.00;;;;;;5023905;28;20083;-69
2023/07/13 12:03:52;;;;;;;6.97;2.80;;;23.60;1.00;;;;;;5039468;28;20021;-70
2023/07/13 12:06:39;;;;;;;11.82;3.40;;;24.20;1.00;;;;;;5031763;28;20112;-70
2023/07/13 12:09:12;;;;;;;6.70;3.38;;;23.90;1.00;;;;;;5028264;28;20388;-69
2023/07/13 12:11:41;;;;;;;5.60;2.75;;;24.10;1.00;;;;;;5034239;28;20124;-69
2023/07/13 12:14:12;;;;;;;7.50;3.13;;;24.40;1.00;;;;;;5026079;28;20538;-69
2023/07/13 12:16:37;;;;;;;8.20;3.25;;;23.90;1.00;;;;;;5024799;28;20032;-69
2023/07/13 12:19:03;;;;;;;7.50;2.97;;;23.40;1.00;;;;;;5023649;28;20116;-69
2023/07/13 12:21:32;;;;;;;11.85;3.20;;;23.80;1.00;;;;;;5023511;28;20098;-70
2023/07/13 12:23:58;;;;;;;5.60;2.67;;;23.90;1.00;;;;;;5017353;28;21426;-69
2023/07/13 12:26:24;;;;;;;8.10;2.83;;;23.60;1.00;;;;;;5024808;28;20105;-69
2023/07/13 12:28:56;;;;;;;4.47;2.58;;;23.50;20.90;;;;;;5025521;28;20025;-69
2023/07/13 12:31:28;;;;;;;10.05;2.60;;;23.70;40.90;;;;;;5027853;28;20399;-67
2023/07/13 12:34:00;;;;;;;5.75;2.78;;;23.90;1.00;;;;;;5027114;28;20025;-68
2023/07/13 12:36:26;;;;;;;8.48;2.83;;;24.40;99.90;;;;;;5027852;28;20110;-67
2023/07/13 12:38:52;;;;;;;9.57;2.97;;;24.50;1.00;;;;;;5030957;28;20029;-69
2023/07/13 12:41:18;;;;;;;7.90;2.90;;;24.60;1.00;;;;;;5027387;28;20026;-69
2023/07/13 12:43:45;;;;;;;8.68;3.08;;;24.90;1.00;;;;;;5027076;28;20486;-70
2023/07/13 12:46:18;;;;;;;7.68;2.67;;;24.60;1.00;;;;;;5017233;28;20073;-68
2023/07/13 12:48:48;;;;;;;6.43;2.63;;;23.80;1.00;;;;;;5008583;28;20084;-69
2023/07/13 12:51:14;;;;;;;8.50;2.60;;;23.80;1.00;;;;;;5008089;28;20029;-71
2023/07/13 12:53:50;;;;;;;10.25;2.90;;;23.90;1.00;;;;;;5005064;28;20033;-70
2023/07/13 12:56:22;;;;;;;8.70;3.20;;;23.90;1.00;;;;;;5007923;28;20472;-69
2023/07/13 12:58:54;;;;;;;7.20;2.60;;;23.80;1.00;;;;;;5010630;28;20113;-70
2023/07/13 13:01:21;;;;;;;6.40;2.90;;;24.20;1.00;;;;;;5011822;28;20502;-70
2023/07/13 13:03:52;;;;;;;7.43;2.92;;;24.60;25.50;;;;;;5005153;28;20468;-69
2023/07/13 13:08:58;;;;;;;5.55;2.70;;;25.10;1.00;;;;;;5076627;27;20695;-70
2023/07/13 13:11:25;;;;;;;7.53;2.90;;;24.60;1.00;;;;;;5082051;28;20039;-69
2023/07/13 13:13:52;;;;;;;5.03;2.88;;;24.60;1.00;;;;;;5083434;28;20031;-68